Time;durP1;ratioP1;P1;durP2;ratioP2;P2;SDS_P1;SDS_P2;PMS_P1;PMS_P2;Temp;Humidity;BMP_temperature;BMP_pressure;BME280_temperature;BME280_humidity;BME280_pressure;Samples;Min_cycle;Max_cycle;Signal;HPM_P1;HPM_P2
2023/01/06 00:01:07;;;;;;;4.70;3.77;;;10.40;99.90;;;;;;5034470;28;20430;-73
2023/01/06 00:03:33;;;;;;;3.87;3.40;;;10.40;99.90;;;;;;5038942;28;20983;-73
2023/01/06 00:06:02;;;;;;;5.90;4.20;;;10.50;99.90;;;;;;5045155;28;20441;-74
2023/01/06 00:08:28;;;;;;;4.57;3.60;;;10.50;99.90;;;;;;5046595;28;20454;-74
2023/01/06 00:10:53;;;;;;;3.70;3.30;;;10.50;99.90;;;;;;5050389;28;20517;-74
2023/01/06 00:13:19;;;;;;;3.70;3.10;;;10.40;99.90;;;;;;5051685;28;20614;-73
2023/01/06 00:15:45;;;;;;;4.00;3.03;;;10.50;99.90;;;;;;5044963;28;20235;-73
2023/01/06 00:18:10;;;;;;;6.13;3.40;;;10.50;99.90;;;;;;5045432;28;20211;-74
2023/01/06 00:20:36;;;;;;;2.93;2.10;;;10.50;99.90;;;;;;5059859;28;20258;-73
2023/01/06 00:23:02;;;;;;;3.73;2.57;;;10.50;99.90;;;;;;5059389;28;20219;-73
2023/01/06 00:25:28;;;;;;;3.10;2.70;;;10.50;99.90;;;;;;5025920;28;20579;-73
2023/01/06 00:27:54;;;;;;;2.53;2.23;;;10.50;99.90;;;;;;5044033;28;20449;-74
2023/01/06 00:30:20;;;;;;;3.70;2.70;;;10.50;99.90;;;;;;5049973;28;20211;-73
2023/01/06 00:32:46;;;;;;;3.17;2.53;;;10.50;99.90;;;;;;5030111;28;20792;-73
2023/01/06 00:35:11;;;;;;;3.80;2.33;;;10.50;99.90;;;;;;5052782;28;20243;-74
2023/01/06 00:37:37;;;;;;;6.30;2.60;;;10.50;99.90;;;;;;5047266;28;20228;-74
2023/01/06 00:40:03;;;;;;;2.67;1.67;;;10.50;99.90;;;;;;5019804;28;20226;-74
2023/01/06 00:42:29;;;;;;;2.83;2.20;;;10.50;99.90;;;;;;5048483;28;20730;-74
2023/01/06 00:44:54;;;;;;;1.93;1.83;;;10.50;99.90;;;;;;5050698;28;20478;-74
2023/01/06 00:47:20;;;;;;;2.70;2.20;;;10.50;99.90;;;;;;5047076;28;20219;-74
2023/01/06 00:49:46;;;;;;;3.93;1.73;;;10.50;99.90;;;;;;5029213;28;20218;-73
2023/01/06 00:52:12;;;;;;;3.67;2.07;;;10.50;99.90;;;;;;5041839;28;20262;-73
2023/01/06 00:54:38;;;;;;;2.23;2.03;;;10.50;99.90;;;;;;5038163;28;20459;-74
2023/01/06 00:57:06;;;;;;;2.00;1.80;;;10.50;99.90;;;;;;5061699;28;20437;-73
2023/01/06 00:59:31;;;;;;;6.17;1.60;;;10.50;99.90;;;;;;5044148;28;20216;-74
2023/01/06 01:02:01;;;;;;;2.40;1.67;;;10.50;99.90;;;;;;5052194;28;20443;-73
2023/01/06 01:04:28;;;;;;;2.57;1.53;;;10.50;99.90;;;;;;5058277;28;20463;-74
2023/01/06 01:06:54;;;;;;;2.30;1.70;;;10.50;99.90;;;;;;5043024;28;20454;-73
2023/01/06 01:09:28;;;;;;;2.13;1.60;;;10.50;99.90;;;;;;5048562;28;20420;-74
2023/01/06 01:12:09;;;;;;;1.70;1.50;;;10.50;99.90;;;;;;5037793;28;20446;-74
2023/01/06 01:14:40;;;;;;;1.37;1.30;;;10.60;99.90;;;;;;5034082;28;20466;-74
2023/01/06 01:17:08;;;;;;;1.67;1.57;;;10.60;99.90;;;;;;5043234;28;20453;-73
2023/01/06 01:19:34;;;;;;;1.17;1.10;;;10.60;99.90;;;;;;5023880;28;20458;-74
2023/01/06 01:22:00;;;;;;;1.60;1.50;;;10.60;99.90;;;;;;5056377;28;20442;-74
2023/01/06 01:24:26;;;;;;;1.23;1.13;;;10.50;99.90;;;;;;5056551;28;20840;-73
2023/01/06 01:26:51;;;;;;;1.33;1.23;;;10.60;99.90;;;;;;5025620;28;20311;-74
2023/01/06 01:29:18;;;;;;;1.47;1.37;;;10.60;99.90;;;;;;5049664;28;20219;-74
2023/01/06 01:31:45;;;;;;;1.10;1.00;;;10.60;99.90;;;;;;5048505;28;20211;-74
2023/01/06 01:34:13;;;;;;;1.33;1.07;;;10.60;99.90;;;;;;5030752;28;20465;-74
2023/01/06 01:36:40;;;;;;;1.37;1.03;;;10.60;99.90;;;;;;5047955;28;20438;-73
2023/01/06 01:39:06;;;;;;;1.20;1.10;;;10.60;99.90;;;;;;5043602;28;20517;-74
2023/01/06 01:41:32;;;;;;;1.83;1.20;;;10.60;99.90;;;;;;5030936;28;20996;-74
2023/01/06 01:44:00;;;;;;;0.90;0.90;;;10.60;99.90;;;;;;5043282;28;20210;-74
2023/01/06 01:46:32;;;;;;;1.57;1.10;;;10.60;99.90;;;;;;5050848;28;20742;-72
2023/01/06 01:49:11;;;;;;;1.20;1.10;;;10.60;99.90;;;;;;5040238;28;20474;-74
2023/01/06 01:51:40;;;;;;;1.80;1.13;;;10.60;99.90;;;;;;5055767;28;20473;-74
2023/01/06 01:54:11;;;;;;;1.10;1.00;;;10.60;99.90;;;;;;5044380;28;20991;-74
2023/01/06 01:56:42;;;;;;;1.17;1.07;;;10.60;99.90;;;;;;5028463;28;20505;-74
2023/01/06 01:59:17;;;;;;;1.20;1.10;;;10.70;99.90;;;;;;5055921;28;20453;-74
2023/01/06 02:01:45;;;;;;;0.70;0.70;;;10.70;99.90;;;;;;5049886;28;20513;-74
2023/01/06 02:04:11;;;;;;;1.27;1.03;;;10.70;99.90;;;;;;5051908;28;20533;-74
2023/01/06 02:06:39;;;;;;;1.03;0.93;;;10.70;99.90;;;;;;5032223;28;20447;-74
2023/01/06 02:09:13;;;;;;;1.30;0.70;;;10.70;99.90;;;;;;5039566;28;20464;-74
2023/01/06 02:11:40;;;;;;;0.90;0.90;;;10.70;99.90;;;;;;5047859;28;20437;-74
2023/01/06 02:14:14;;;;;;;1.60;0.93;;;10.70;99.90;;;;;;5053508;28;20463;-73
2023/01/06 02:16:58;;;;;;;0.77;0.77;;;10.70;99.90;;;;;;5029968;28;20468;-73
2023/01/06 02:19:32;;;;;;;0.80;0.80;;;10.70;99.90;;;;;;5057029;28;20441;-74
2023/01/06 02:22:26;;;;;;;0.60;0.60;;;10.70;99.90;;;;;;5030690;28;20489;-74
2023/01/06 02:25:16;;;;;;;0.77;0.77;;;10.80;99.90;;;;;;5020897;28;20435;-73
2023/01/06 02:28:14;;;;;;;0.70;0.70;;;10.80;99.90;;;;;;5035496;28;20455;-74
2023/01/06 02:31:11;;;;;;;0.97;0.80;;;10.80;99.90;;;;;;5056925;28;20438;-73
2023/01/06 02:33:55;;;;;;;0.90;0.90;;;10.70;99.90;;;;;;5046063;28;20456;-73
2023/01/06 02:36:44;;;;;;;1.10;1.03;;;10.70;99.90;;;;;;5027926;28;20490;-74
2023/01/06 02:39:12;;;;;;;1.13;1.03;;;10.70;99.90;;;;;;5026359;28;20443;-74
2023/01/06 02:41:42;;;;;;;0.90;0.67;;;10.80;99.90;;;;;;5053073;28;20496;-74
2023/01/06 02:44:23;;;;;;;0.60;0.60;;;10.80;99.90;;;;;;5043758;28;20254;-74
2023/01/06 02:47:04;;;;;;;0.97;0.87;;;10.80;99.90;;;;;;5041162;28;20508;-74
2023/01/06 02:49:40;;;;;;;0.90;0.90;;;10.80;99.90;;;;;;5046451;28;20529;-74
2023/01/06 02:52:44;;;;;;;0.77;0.77;;;10.80;99.90;;;;;;5057395;28;20445;-74
2023/01/06 02:55:35;;;;;;;1.13;1.00;;;10.80;99.90;;;;;;5056753;28;20906;-74
2023/01/06 02:58:27;;;;;;;0.70;0.70;;;10.80;99.90;;;;;;5046475;28;20449;-74
2023/01/06 03:01:31;;;;;;;1.30;0.90;;;10.80;99.90;;;;;;5038866;28;20445;-74
2023/01/06 03:04:00;;;;;;;0.90;0.90;;;10.80;99.90;;;;;;5056284;28;20769;-74
2023/01/06 03:06:30;;;;;;;0.83;0.83;;;10.80;99.90;;;;;;5057236;28;20450;-73
2023/01/06 03:08:58;;;;;;;3.53;1.20;;;10.80;99.90;;;;;;5034485;28;20525;-74
2023/01/06 03:11:28;;;;;;;1.13;0.73;;;10.80;99.90;;;;;;5049381;28;20452;-74
2023/01/06 03:14:13;;;;;;;1.10;1.10;;;10.80;99.90;;;;;;5039466;28;20445;-74
2023/01/06 03:16:38;;;;;;;1.23;1.10;;;10.80;99.90;;;;;;5038125;28;20431;-74
2023/01/06 03:19:04;;;;;;;0.70;0.70;;;10.70;99.90;;;;;;5037115;28;20440;-74
2023/01/06 03:21:38;;;;;;;0.97;0.73;;;10.70;99.90;;;;;;5046458;28;20228;-74
2023/01/06 03:24:06;;;;;;;1.00;0.70;;;10.70;99.90;;;;;;5028076;28;20215;-74
2023/01/06 03:26:32;;;;;;;0.77;0.77;;;10.80;99.90;;;;;;5057142;28;20477;-74
2023/01/06 03:28:59;;;;;;;1.13;0.87;;;10.80;99.90;;;;;;5057768;28;20481;-74
2023/01/06 03:31:36;;;;;;;1.00;0.90;;;10.80;99.90;;;;;;5058118;28;20454;-74
2023/01/06 03:34:24;;;;;;;1.37;0.80;;;10.70;99.90;;;;;;5037213;28;20464;-74
2023/01/06 03:36:57;;;;;;;0.87;0.83;;;10.80;99.90;;;;;;5040790;28;20451;-73
2023/01/06 03:39:30;;;;;;;0.70;0.70;;;10.70;99.90;;;;;;5051907;28;20455;-73
2023/01/06 03:44:57;;;;;;;1.07;0.60;;;10.70;99.90;;;;;;5045198;28;20513;-73
2023/01/06 03:47:40;;;;;;;0.47;0.40;;;10.60;99.90;;;;;;5047944;28;20477;-73
2023/01/06 03:50:27;;;;;;;0.60;0.40;;;10.50;99.90;;;;;;5056820;28;20453;-73
2023/01/06 03:53:06;;;;;;;0.77;0.53;;;10.50;99.90;;;;;;5065212;28;20962;-73
2023/01/06 03:55:33;;;;;;;0.57;0.50;;;10.50;99.90;;;;;;5062722;28;20482;-73
2023/01/06 03:58:00;;;;;;;1.17;0.40;;;10.50;99.90;;;;;;5030885;28;20450;-74
2023/01/06 04:00:30;;;;;;;0.50;0.40;;;10.50;99.90;;;;;;5043306;28;20828;-73
2023/01/06 04:03:01;;;;;;;0.40;0.30;;;10.50;99.90;;;;;;5037752;28;20448;-73
2023/01/06 04:05:28;;;;;;;0.30;0.30;;;10.50;99.90;;;;;;5083511;28;20843;-73
2023/01/06 04:07:56;;;;;;;0.40;0.40;;;10.50;99.90;;;;;;5051352;28;20450;-73
2023/01/06 04:10:23;;;;;;;2.10;0.40;;;10.40;99.90;;;;;;5051780;28;20457;-73
2023/01/06 04:12:52;;;;;;;0.67;0.50;;;10.40;99.90;;;;;;5062795;28;20443;-73
2023/01/06 04:15:24;;;;;;;0.30;0.30;;;10.40;99.90;;;;;;5042718;28;20477;-72
2023/01/06 04:17:52;;;;;;;0.87;0.73;;;10.40;99.90;;;;;;5053701;28;20454;-72
2023/01/06 04:20:24;;;;;;;0.40;0.30;;;10.30;99.90;;;;;;5080840;28;20457;-70
2023/01/06 04:22:56;;;;;;;0.50;0.40;;;10.30;99.90;;;;;;5086354;28;20448;-73
2023/01/06 04:25:23;;;;;;;0.57;0.57;;;10.40;99.90;;;;;;5075408;28;20482;-73
2023/01/06 04:27:49;;;;;;;0.50;0.40;;;10.30;99.90;;;;;;5050939;28;20534;-73
2023/01/06 04:30:15;;;;;;;0.53;0.50;;;10.30;99.90;;;;;;5064658;28;20824;-74
2023/01/06 04:32:43;;;;;;;0.60;0.47;;;10.30;99.90;;;;;;5044486;28;20823;-73
2023/01/06 04:35:09;;;;;;;0.50;0.50;;;10.30;99.90;;;;;;5050839;28;20471;-73
2023/01/06 04:37:36;;;;;;;1.80;0.47;;;10.30;99.90;;;;;;5055583;28;20788;-73
2023/01/06 04:40:02;;;;;;;4.70;0.70;;;10.20;99.90;;;;;;5055395;28;20461;-73
2023/01/06 04:42:28;;;;;;;0.70;0.50;;;10.20;99.90;;;;;;5062523;28;20464;-73
2023/01/06 04:44:53;;;;;;;0.40;0.40;;;10.20;99.90;;;;;;5047415;28;20443;-73
2023/01/06 04:47:19;;;;;;;0.50;0.50;;;10.20;99.90;;;;;;5053457;28;20582;-73
2023/01/06 04:49:45;;;;;;;1.00;0.70;;;10.20;99.90;;;;;;5039991;28;20223;-73
2023/01/06 04:52:10;;;;;;;0.50;0.40;;;10.20;99.90;;;;;;5054424;28;20223;-72
2023/01/06 04:54:36;;;;;;;0.40;0.40;;;10.20;99.90;;;;;;5057894;28;20281;-73
2023/01/06 04:57:02;;;;;;;0.40;0.40;;;10.20;99.90;;;;;;5042262;28;20216;-73
2023/01/06 04:59:28;;;;;;;1.23;0.50;;;10.20;99.90;;;;;;5055403;28;20298;-74
2023/01/06 05:01:53;;;;;;;0.80;0.60;;;10.20;99.90;;;;;;5073130;28;20687;-74
2023/01/06 05:04:19;;;;;;;0.70;0.50;;;10.20;99.90;;;;;;5030135;28;20215;-73
2023/01/06 05:06:45;;;;;;;0.50;0.50;;;10.10;99.90;;;;;;5029970;28;20281;-72
2023/01/06 05:09:11;;;;;;;0.50;0.50;;;10.10;99.90;;;;;;5041616;28;20230;-73
2023/01/06 05:11:37;;;;;;;0.57;0.50;;;10.00;99.90;;;;;;5040335;28;20473;-73
2023/01/06 05:14:03;;;;;;;2.57;0.73;;;10.00;99.90;;;;;;5049411;28;20223;-74
2023/01/06 05:16:31;;;;;;;1.17;0.63;;;10.10;99.90;;;;;;5049131;28;20216;-74
2023/01/06 05:18:57;;;;;;;0.60;0.60;;;10.10;99.90;;;;;;5050148;28;20526;-74
2023/01/06 05:21:26;;;;;;;0.60;0.60;;;10.20;99.90;;;;;;5053171;28;20537;-74
2023/01/06 05:23:52;;;;;;;0.97;0.60;;;10.20;99.90;;;;;;5061272;28;20446;-74
2023/01/06 05:26:23;;;;;;;0.70;0.70;;;10.20;99.90;;;;;;5043632;28;20458;-74
2023/01/06 05:28:49;;;;;;;1.10;0.73;;;10.30;99.90;;;;;;5067847;28;20442;-74
2023/01/06 05:31:15;;;;;;;0.90;0.90;;;10.30;99.90;;;;;;5051508;28;20460;-74
2023/01/06 05:33:41;;;;;;;1.37;0.90;;;10.30;99.90;;;;;;5060842;28;20223;-74
2023/01/06 05:36:12;;;;;;;1.07;0.80;;;10.30;99.90;;;;;;5038080;28;20269;-74
2023/01/06 05:38:38;;;;;;;0.50;0.50;;;10.30;99.90;;;;;;5060080;28;20231;-74
2023/01/06 05:41:04;;;;;;;1.03;0.80;;;10.30;99.90;;;;;;5037271;28;20453;-74
2023/01/06 05:43:32;;;;;;;0.80;0.80;;;10.30;99.90;;;;;;5039228;28;20453;-74
2023/01/06 05:45:59;;;;;;;0.83;0.63;;;10.30;99.90;;;;;;5044706;28;20458;-74
2023/01/06 05:48:26;;;;;;;1.37;0.63;;;10.30;99.90;;;;;;5042825;28;20482;-74
2023/01/06 05:50:58;;;;;;;2.40;1.07;;;10.30;99.90;;;;;;5039601;28;20492;-74
2023/01/06 05:53:24;;;;;;;1.07;0.57;;;10.30;99.90;;;;;;5085207;28;20811;-70
2023/01/06 05:55:50;;;;;;;0.60;0.40;;;10.30;99.90;;;;;;5064873;28;20468;-74
2023/01/06 05:58:15;;;;;;;0.50;0.50;;;10.30;99.90;;;;;;5038080;28;20215;-74
2023/01/06 06:00:41;;;;;;;0.60;0.50;;;10.20;99.90;;;;;;5057741;28;20233;-73
2023/01/06 06:03:06;;;;;;;0.60;0.60;;;10.20;99.90;;;;;;5074385;28;20214;-74
2023/01/06 06:05:32;;;;;;;0.50;0.50;;;10.20;99.90;;;;;;5088518;28;20220;-75
2023/01/06 06:07:58;;;;;;;0.63;0.63;;;10.10;99.90;;;;;;5088870;28;20246;-74
2023/01/06 06:10:23;;;;;;;0.57;0.50;;;10.00;99.90;;;;;;5069304;28;20224;-74
2023/01/06 06:12:52;;;;;;;2.40;0.60;;;9.90;99.90;;;;;;5073070;28;20218;-74
2023/01/06 06:15:18;;;;;;;0.40;0.40;;;10.00;99.90;;;;;;5065148;28;20223;-74
2023/01/06 06:17:44;;;;;;;1.20;0.70;;;10.10;99.90;;;;;;5061299;28;20441;-74
2023/01/06 06:20:10;;;;;;;0.43;0.40;;;10.10;99.90;;;;;;5056668;28;20520;-74
2023/01/06 06:22:35;;;;;;;0.87;0.67;;;10.10;99.90;;;;;;5062022;28;20219;-73
2023/01/06 06:25:01;;;;;;;0.50;0.50;;;10.00;99.90;;;;;;5094217;28;20268;-73
2023/01/06 06:27:27;;;;;;;0.50;0.50;;;10.00;99.90;;;;;;5075664;28;20285;-74
2023/01/06 06:29:52;;;;;;;1.57;0.70;;;10.10;99.90;;;;;;5043549;28;20240;-74
2023/01/06 06:32:18;;;;;;;0.73;0.40;;;10.10;99.90;;;;;;5048326;28;20212;-74
2023/01/06 06:34:43;;;;;;;0.40;0.40;;;10.10;99.90;;;;;;5049311;28;20242;-72
2023/01/06 06:37:09;;;;;;;1.00;0.50;;;10.10;99.90;;;;;;5086292;28;20222;-71
2023/01/06 06:39:35;;;;;;;3.33;1.10;;;10.00;99.90;;;;;;5091694;28;20218;-71
2023/01/06 06:42:00;;;;;;;1.00;0.73;;;10.00;99.90;;;;;;5062464;28;20219;-71
2023/01/06 06:44:26;;;;;;;0.63;0.60;;;9.90;99.90;;;;;;5057689;28;20231;-69
2023/01/06 06:46:52;;;;;;;2.40;1.10;;;9.90;99.90;;;;;;5060327;28;20215;-71
2023/01/06 06:49:17;;;;;;;0.60;0.57;;;9.90;99.90;;;;;;5053531;28;20219;-70
2023/01/06 06:51:46;;;;;;;0.50;0.50;;;9.90;99.90;;;;;;5071432;28;20264;-71
2023/01/06 06:54:12;;;;;;;0.60;0.60;;;9.90;99.90;;;;;;5071057;28;20222;-71
2023/01/06 06:56:38;;;;;;;1.30;0.70;;;9.90;99.90;;;;;;5048721;28;20441;-70
2023/01/06 06:59:03;;;;;;;0.70;0.70;;;9.90;99.90;;;;;;5041685;28;20519;-71
2023/01/06 07:01:30;;;;;;;0.80;0.60;;;9.90;99.90;;;;;;5034608;28;20278;-71
2023/01/06 07:03:56;;;;;;;0.80;0.70;;;9.90;99.90;;;;;;5035432;28;20212;-72
2023/01/06 07:06:23;;;;;;;1.37;0.70;;;10.00;99.90;;;;;;5056122;28;20972;-71
2023/01/06 07:08:49;;;;;;;0.87;0.60;;;10.00;99.90;;;;;;5039611;28;20224;-72
2023/01/06 07:11:15;;;;;;;0.50;0.50;;;10.10;99.90;;;;;;5031661;28;20798;-71
2023/01/06 07:13:41;;;;;;;0.80;0.80;;;10.10;99.90;;;;;;5059231;28;20445;-71
2023/01/06 07:16:07;;;;;;;0.60;0.60;;;10.10;99.90;;;;;;5065355;28;20550;-72
2023/01/06 07:18:33;;;;;;;0.80;0.80;;;10.10;99.90;;;;;;5058314;28;20224;-72
2023/01/06 07:20:59;;;;;;;1.17;0.70;;;10.00;99.90;;;;;;5062696;28;20507;-72
2023/01/06 07:23:24;;;;;;;0.50;0.50;;;10.00;99.90;;;;;;5034672;28;20227;-72
2023/01/06 07:26:00;;;;;;;0.70;0.63;;;10.00;99.90;;;;;;5050770;28;20781;-71
2023/01/06 07:28:28;;;;;;;0.57;0.57;;;10.00;99.90;;;;;;5040281;28;20215;-71
2023/01/06 07:30:53;;;;;;;0.80;0.80;;;10.00;99.90;;;;;;5035429;28;20434;-71
2023/01/06 07:33:19;;;;;;;1.07;0.67;;;9.90;99.90;;;;;;5066104;28;20989;-72
2023/01/06 07:35:46;;;;;;;0.60;0.60;;;9.80;99.90;;;;;;5063491;28;20235;-71
2023/01/06 07:38:11;;;;;;;1.40;0.87;;;9.90;99.90;;;;;;5052963;28;20446;-73
2023/01/06 07:40:37;;;;;;;0.70;0.70;;;9.90;99.90;;;;;;5028565;28;20470;-72
2023/01/06 07:43:04;;;;;;;1.27;0.90;;;9.80;99.90;;;;;;5050739;28;20318;-71
2023/01/06 07:45:30;;;;;;;0.80;0.80;;;9.70;99.90;;;;;;5050448;28;20451;-71
2023/01/06 07:47:56;;;;;;;0.93;0.80;;;9.70;99.90;;;;;;5055830;28;20503;-71
2023/01/06 07:50:21;;;;;;;0.80;0.70;;;9.70;99.90;;;;;;5043618;28;20216;-71
2023/01/06 07:52:47;;;;;;;0.70;0.60;;;9.70;99.90;;;;;;5049325;28;20248;-71
2023/01/06 07:55:13;;;;;;;1.10;0.60;;;9.80;99.90;;;;;;5046790;28;20211;-71
2023/01/06 07:57:38;;;;;;;0.63;0.60;;;9.80;99.90;;;;;;5055127;28;20714;-72
2023/01/06 08:00:04;;;;;;;0.77;0.70;;;9.80;99.90;;;;;;5046237;28;20659;-72
2023/01/06 08:02:37;;;;;;;0.70;0.60;;;9.90;99.90;;;;;;5048474;28;20238;-72
2023/01/06 08:05:03;;;;;;;0.80;0.60;;;9.90;99.90;;;;;;5050340;28;20475;-72
2023/01/06 08:07:29;;;;;;;1.33;0.60;;;9.80;99.90;;;;;;5058719;28;20223;-72
2023/01/06 08:09:54;;;;;;;1.20;0.73;;;9.80;99.90;;;;;;5037270;28;20603;-72
2023/01/06 08:12:20;;;;;;;0.97;0.80;;;9.90;99.90;;;;;;5030501;28;20314;-71
2023/01/06 08:14:46;;;;;;;0.63;0.53;;;9.90;99.90;;;;;;5077111;28;20226;-72
2023/01/06 08:17:11;;;;;;;1.40;0.67;;;9.90;99.90;;;;;;5041698;28;20671;-72
2023/01/06 08:19:37;;;;;;;0.63;0.63;;;9.90;99.90;;;;;;5013117;28;20620;-71
2023/01/06 08:22:02;;;;;;;0.80;0.70;;;9.90;99.90;;;;;;5038083;28;20231;-72
2023/01/06 08:24:29;;;;;;;1.67;0.60;;;9.90;99.90;;;;;;5066538;28;20233;-71
2023/01/06 08:26:56;;;;;;;0.63;0.63;;;9.80;99.90;;;;;;5083542;28;20221;-71
2023/01/06 08:29:23;;;;;;;1.57;0.60;;;9.80;99.90;;;;;;5089970;28;20448;-71
2023/01/06 08:31:48;;;;;;;0.63;0.53;;;9.70;99.90;;;;;;5054464;28;20525;-71
2023/01/06 08:34:14;;;;;;;0.60;0.60;;;9.70;99.90;;;;;;5056844;28;20567;-72
2023/01/06 08:36:42;;;;;;;0.80;0.60;;;9.70;99.90;;;;;;5051699;28;20257;-71
2023/01/06 08:39:07;;;;;;;1.73;0.80;;;9.70;99.90;;;;;;5049545;28;20216;-72
2023/01/06 08:41:33;;;;;;;0.50;0.50;;;9.70;99.90;;;;;;5040841;28;20446;-72
2023/01/06 08:43:59;;;;;;;2.50;0.50;;;9.80;99.90;;;;;;5043800;28;20682;-71
2023/01/06 08:46:25;;;;;;;1.47;0.60;;;9.70;99.90;;;;;;5061577;28;20211;-71
2023/01/06 08:48:51;;;;;;;1.17;0.70;;;9.70;99.90;;;;;;5068902;28;20265;-72
2023/01/06 08:51:19;;;;;;;0.57;0.57;;;9.70;99.90;;;;;;5039456;28;20428;-72
2023/01/06 08:53:46;;;;;;;0.70;0.70;;;9.70;99.90;;;;;;5055170;28;20210;-71
2023/01/06 08:56:23;;;;;;;0.70;0.50;;;9.60;99.90;;;;;;5052098;28;20540;-71
2023/01/06 08:58:58;;;;;;;0.70;0.60;;;9.60;99.90;;;;;;5068613;28;20491;-72
2023/01/06 09:01:26;;;;;;;1.07;0.70;;;9.70;99.90;;;;;;5066477;28;20454;-70
2023/01/06 09:03:52;;;;;;;0.93;0.77;;;9.60;99.90;;;;;;5060564;28;20473;-72
2023/01/06 09:06:19;;;;;;;1.90;0.97;;;9.60;99.90;;;;;;5049685;28;20482;-71
2023/01/06 09:08:47;;;;;;;0.83;0.80;;;9.60;99.90;;;;;;5032053;28;20275;-72
2023/01/06 09:11:13;;;;;;;0.80;0.80;;;9.60;99.90;;;;;;5045838;28;20497;-72
2023/01/06 09:13:39;;;;;;;0.53;0.53;;;9.60;99.90;;;;;;5068142;28;20449;-71
2023/01/06 09:16:09;;;;;;;1.30;0.80;;;9.70;99.90;;;;;;5053320;28;20501;-72
2023/01/06 09:18:36;;;;;;;0.60;0.60;;;9.70;99.90;;;;;;5044182;28;20495;-72
2023/01/06 09:21:02;;;;;;;0.50;0.43;;;9.70;99.90;;;;;;5073230;28;20450;-72
2023/01/06 09:23:29;;;;;;;0.60;0.60;;;9.70;99.90;;;;;;5032927;28;20459;-72
2023/01/06 09:25:55;;;;;;;0.87;0.83;;;9.70;99.90;;;;;;5038376;28;20472;-71
2023/01/06 09:28:21;;;;;;;0.40;0.40;;;9.70;99.90;;;;;;5058734;28;20972;-71
2023/01/06 09:30:47;;;;;;;0.60;0.60;;;9.70;99.90;;;;;;5057248;28;20449;-71
2023/01/06 09:33:14;;;;;;;0.50;0.50;;;9.70;99.90;;;;;;5038206;28;20211;-71
2023/01/06 09:35:41;;;;;;;0.60;0.50;;;9.70;99.90;;;;;;5042603;28;20457;-71
2023/01/06 09:38:07;;;;;;;0.63;0.63;;;9.70;99.90;;;;;;5029201;28;20611;-72
2023/01/06 09:41:04;;;;;;;0.40;0.40;;;9.70;99.90;;;;;;5051825;28;20532;-72
2023/01/06 09:43:50;;;;;;;0.60;0.60;;;9.70;99.90;;;;;;5044089;28;20223;-71
2023/01/06 09:46:21;;;;;;;0.50;0.50;;;9.70;99.90;;;;;;5034619;28;20561;-72
2023/01/06 09:49:08;;;;;;;1.03;0.57;;;9.70;99.90;;;;;;5035822;28;20500;-72
2023/01/06 09:51:35;;;;;;;0.83;0.60;;;9.70;99.90;;;;;;5056415;28;20485;-72
2023/01/06 09:54:14;;;;;;;0.77;0.60;;;9.70;99.90;;;;;;5066525;28;20438;-72
2023/01/06 09:56:43;;;;;;;0.50;0.50;;;9.80;99.90;;;;;;5043418;28;20500;-72
2023/01/06 09:59:18;;;;;;;0.57;0.57;;;9.80;99.90;;;;;;5057074;28;20435;-72
2023/01/06 10:01:47;;;;;;;0.80;0.70;;;9.80;99.90;;;;;;5063887;28;20511;-72
2023/01/06 10:04:23;;;;;;;0.60;0.50;;;9.80;99.90;;;;;;5053986;28;20448;-72
2023/01/06 10:07:00;;;;;;;0.70;0.50;;;9.80;99.90;;;;;;5046904;28;20555;-72
2023/01/06 10:09:33;;;;;;;0.47;0.40;;;9.90;99.90;;;;;;5052389;28;20450;-72
2023/01/06 10:12:17;;;;;;;1.50;0.60;;;9.90;99.90;;;;;;5062274;28;20514;-72
2023/01/06 10:15:12;;;;;;;0.40;0.40;;;10.00;99.90;;;;;;5063171;28;20544;-72
2023/01/06 10:18:01;;;;;;;2.50;0.50;;;10.00;99.90;;;;;;5031089;28;20441;-72
2023/01/06 10:20:57;;;;;;;0.70;0.70;;;10.10;99.90;;;;;;5049754;28;20512;-72
2023/01/06 10:23:46;;;;;;;0.60;0.57;;;10.10;99.90;;;;;;5007892;28;20443;-72
2023/01/06 10:26:23;;;;;;;0.50;0.50;;;10.20;99.90;;;;;;5051514;28;20453;-72
2023/01/06 10:28:52;;;;;;;0.50;0.50;;;10.20;99.90;;;;;;5050342;28;20449;-72
2023/01/06 10:31:23;;;;;;;0.60;0.60;;;10.30;99.90;;;;;;5057969;28;20445;-71
2023/01/06 10:33:54;;;;;;;0.70;0.70;;;10.30;99.90;;;;;;5060940;28;20462;-72
2023/01/06 10:36:31;;;;;;;0.60;0.60;;;10.30;99.90;;;;;;5050272;28;20977;-72
2023/01/06 10:38:58;;;;;;;0.70;0.70;;;10.40;99.90;;;;;;5044960;28;20448;-72
2023/01/06 10:41:24;;;;;;;0.87;0.87;;;10.40;99.90;;;;;;5056939;28;20794;-72
2023/01/06 10:43:50;;;;;;;0.50;0.50;;;10.40;99.90;;;;;;5083230;28;20449;-72
2023/01/06 10:46:16;;;;;;;0.70;0.70;;;10.40;99.90;;;;;;5046476;28;20207;-72
2023/01/06 10:48:43;;;;;;;0.50;0.50;;;10.50;99.90;;;;;;5058677;28;20529;-72
2023/01/06 10:51:35;;;;;;;0.83;0.80;;;10.50;99.90;;;;;;5072743;28;20223;-72
2023/01/06 10:54:08;;;;;;;0.60;0.60;;;10.50;99.90;;;;;;5059185;28;20993;-72
2023/01/06 10:56:35;;;;;;;1.07;0.60;;;10.50;99.90;;;;;;5033014;28;20529;-71
2023/01/06 10:59:09;;;;;;;2.13;0.60;;;10.60;99.90;;;;;;5039199;28;20462;-72
2023/01/06 11:01:53;;;;;;;1.13;0.57;;;10.60;99.90;;;;;;5059556;28;20449;-72
2023/01/06 11:04:20;;;;;;;0.40;0.40;;;10.70;99.90;;;;;;5029769;28;20462;-72
2023/01/06 11:06:53;;;;;;;0.60;0.50;;;10.70;99.90;;;;;;5066218;28;20859;-72
2023/01/06 11:09:43;;;;;;;0.70;0.70;;;10.80;99.90;;;;;;5049833;28;20458;-72
2023/01/06 11:12:15;;;;;;;0.60;0.60;;;10.80;99.90;;;;;;5059089;28;20445;-72
2023/01/06 11:14:41;;;;;;;1.83;0.60;;;10.90;99.90;;;;;;5040387;28;20892;-72
2023/01/06 11:17:13;;;;;;;0.73;0.70;;;11.00;99.90;;;;;;5046606;28;20448;-72
2023/01/06 11:19:43;;;;;;;0.60;0.60;;;10.90;99.90;;;;;;5053222;28;20446;-72
2023/01/06 11:22:38;;;;;;;0.60;0.60;;;11.00;99.90;;;;;;5043069;28;20446;-72
2023/01/06 11:25:21;;;;;;;0.90;0.80;;;11.00;99.90;;;;;;5055296;28;20441;-73
2023/01/06 11:27:49;;;;;;;0.90;0.70;;;11.00;99.90;;;;;;5044379;28;20484;-72
2023/01/06 11:30:25;;;;;;;1.47;1.17;;;11.10;99.90;;;;;;5056624;28;20450;-73
2023/01/06 11:32:50;;;;;;;0.93;0.93;;;11.10;99.90;;;;;;5055942;28;20934;-72
2023/01/06 11:35:20;;;;;;;1.33;0.90;;;11.30;99.90;;;;;;5050866;28;20698;-72
2023/01/06 11:37:45;;;;;;;1.33;1.10;;;11.20;99.90;;;;;;5069459;28;20227;-72
2023/01/06 11:40:31;;;;;;;1.60;1.10;;;11.20;99.90;;;;;;5022314;28;20449;-72
2023/01/06 11:43:00;;;;;;;1.30;1.20;;;11.20;99.90;;;;;;5041567;28;20685;-72
2023/01/06 11:45:34;;;;;;;1.00;0.97;;;11.20;99.90;;;;;;5047369;28;20478;-72
2023/01/06 11:48:05;;;;;;;3.00;1.50;;;11.30;99.90;;;;;;5056810;28;20458;-72
2023/01/06 11:50:31;;;;;;;1.27;1.13;;;11.30;99.90;;;;;;5057039;28;20592;-72
2023/01/06 11:52:59;;;;;;;1.30;1.20;;;11.30;99.90;;;;;;5065055;28;20524;-71
2023/01/06 11:55:26;;;;;;;1.60;1.50;;;11.40;99.90;;;;;;5053887;28;20235;-72
2023/01/06 11:57:57;;;;;;;1.53;1.43;;;11.40;99.90;;;;;;5049727;28;20446;-71
2023/01/06 12:00:46;;;;;;;2.40;1.33;;;11.50;99.90;;;;;;5056257;28;20526;-72
2023/01/06 12:03:22;;;;;;;2.40;1.30;;;11.50;99.90;;;;;;5050869;28;20542;-72
2023/01/06 12:06:29;;;;;;;1.20;1.10;;;11.40;99.90;;;;;;5051847;28;20449;-72
2023/01/06 12:09:01;;;;;;;1.77;1.67;;;11.40;99.90;;;;;;5015559;28;20450;-72
2023/01/06 12:11:36;;;;;;;1.63;1.53;;;11.40;99.90;;;;;;5078614;28;20456;-72
2023/01/06 12:14:02;;;;;;;1.80;1.10;;;11.40;99.90;;;;;;5054039;28;20504;-72
2023/01/06 12:16:36;;;;;;;3.10;1.40;;;11.30;99.90;;;;;;5036339;28;20450;-72
2023/01/06 12:19:08;;;;;;;1.13;0.97;;;11.30;99.90;;;;;;5043277;28;20218;-72
2023/01/06 12:21:35;;;;;;;1.00;0.90;;;11.30;99.90;;;;;;5043800;28;20449;-72
2023/01/06 12:24:05;;;;;;;1.40;1.30;;;11.40;99.90;;;;;;5053050;28;20851;-72
2023/01/06 12:26:34;;;;;;;1.20;1.20;;;11.50;99.90;;;;;;5073435;28;20455;-72
2023/01/06 12:29:01;;;;;;;3.53;1.50;;;11.50;99.90;;;;;;5076999;28;20493;-72
2023/01/06 12:31:52;;;;;;;1.30;1.20;;;11.50;99.90;;;;;;5069785;28;20612;-72
2023/01/06 12:34:35;;;;;;;0.87;0.87;;;11.40;99.90;;;;;;5036480;28;20506;-72
2023/01/06 12:37:01;;;;;;;1.60;1.27;;;11.40;99.90;;;;;;5058549;28;20465;-72
2023/01/06 12:39:40;;;;;;;1.20;1.20;;;11.50;99.90;;;;;;5059732;28;20501;-72
2023/01/06 12:42:19;;;;;;;1.17;1.07;;;11.40;99.90;;;;;;5047262;28;20216;-72
2023/01/06 12:44:51;;;;;;;1.50;1.20;;;11.40;99.90;;;;;;5038154;28;20481;-72
2023/01/06 12:47:21;;;;;;;3.00;1.73;;;11.40;99.90;;;;;;5042917;28;20482;-73
2023/01/06 12:49:50;;;;;;;1.70;1.37;;;11.50;99.90;;;;;;5034504;28;20552;-72
2023/01/06 12:52:29;;;;;;;2.10;1.40;;;11.50;99.90;;;;;;5068193;28;20446;-73
2023/01/06 12:54:57;;;;;;;1.27;1.17;;;11.50;99.90;;;;;;5044097;28;20651;-73
2023/01/06 12:57:41;;;;;;;1.80;1.70;;;11.50;99.90;;;;;;5041810;28;20462;-72
2023/01/06 13:00:29;;;;;;;2.60;1.50;;;11.40;99.90;;;;;;5040551;28;20558;-73
2023/01/06 13:03:36;;;;;;;1.63;1.53;;;11.50;99.90;;;;;;5057183;28;20438;-73
2023/01/06 13:06:07;;;;;;;2.10;1.37;;;11.50;99.90;;;;;;4959537;28;20430;-73
2023/01/06 13:08:54;;;;;;;0.80;0.80;;;11.60;99.90;;;;;;4991594;28;20960;-73
2023/01/06 13:11:41;;;;;;;1.03;0.93;;;11.60;99.90;;;;;;5004143;28;20463;-73